Time;durP1;ratioP1;P1;durP2;ratioP2;P2;SDS_P1;SDS_P2;PMS_P1;PMS_P2;Temp;Humidity;BMP_temperature;BMP_pressure;BME280_temperature;BME280_humidity;BME280_pressure;Samples;Min_cycle;Max_cycle;Signal;HPM_P1;HPM_P2
2022/07/07 00:00:19;;;;;;;24.63;3.17;;;;;;;;;;1031473;28;20104;-77
2022/07/07 00:00:50;;;;;;;19.13;2.42;;;;;;;;;;1032291;28;20050;-77
2022/07/07 00:01:21;;;;;;;10.68;2.15;;;;;;;;;;1032367;28;20473;-77
2022/07/07 00:01:51;;;;;;;11.40;2.00;;;;;;;;;;1033944;28;20021;-76
2022/07/07 00:02:22;;;;;;;17.65;2.65;;;;;;;;;;1033675;28;20021;-77
2022/07/07 00:02:52;;;;;;;11.63;2.40;;;;;;;;;;1033668;28;20061;-77
2022/07/07 00:03:23;;;;;;;8.05;1.83;;;;;;;;;;1033297;28;20030;-76
2022/07/07 00:03:53;;;;;;;22.88;2.88;;;;;;;;;;1033611;28;20367;-77
2022/07/07 00:04:24;;;;;;;10.25;2.38;;;;;;;;;;1029382;28;20050;-76
2022/07/07 00:04:54;;;;;;;12.95;2.35;;;;;;;;;;1029971;28;20046;-76
2022/07/07 00:05:25;;;;;;;6.75;3.40;;;;;;;;;;1033606;28;20026;-77
2022/07/07 00:05:55;;;;;;;12.63;2.40;;;;;;;;;;1034236;28;20030;-76
2022/07/07 00:06:27;;;;;;;14.75;2.88;;;;;;;;;;1033109;28;20394;-76
2022/07/07 00:06:59;;;;;;;15.48;3.38;;;;;;;;;;1033432;28;20029;-76
2022/07/07 00:07:29;;;;;;;8.07;2.95;;;;;;;;;;1031316;28;20015;-75
2022/07/07 00:08:00;;;;;;;16.23;3.25;;;;;;;;;;1031839;28;20497;-77
2022/07/07 00:08:30;;;;;;;17.27;3.53;;;;;;;;;;1033218;28;20156;-77
2022/07/07 00:09:02;;;;;;;13.30;3.63;;;;;;;;;;1030354;28;20510;-76
2022/07/07 00:09:32;;;;;;;15.13;4.28;;;;;;;;;;1033239;28;20480;-77
2022/07/07 00:10:03;;;;;;;12.75;4.43;;;;;;;;;;1033233;28;20042;-77
2022/07/07 00:10:34;;;;;;;21.95;5.28;;;;;;;;;;1029523;28;20407;-77
2022/07/07 00:11:04;;;;;;;12.93;3.95;;;;;;;;;;1032821;28;20109;-77
2022/07/07 00:11:35;;;;;;;17.52;5.30;;;;;;;;;;1033310;28;20441;-77
2022/07/07 00:12:06;;;;;;;10.18;3.80;;;;;;;;;;1033512;28;20019;-77
2022/07/07 00:12:36;;;;;;;12.02;4.80;;;;;;;;;;1034162;28;20121;-78
2022/07/07 00:13:06;;;;;;;10.50;5.00;;;;;;;;;;1033248;28;20076;-77
2022/07/07 00:13:37;;;;;;;13.90;4.90;;;;;;;;;;1034745;28;20486;-77
2022/07/07 00:14:08;;;;;;;13.75;5.88;;;;;;;;;;1030214;28;20471;-78
2022/07/07 00:14:39;;;;;;;25.00;6.57;;;;;;;;;;1033266;28;20033;-77
2022/07/07 00:15:10;;;;;;;17.33;7.05;;;;;;;;;;1033119;28;20033;-77
2022/07/07 00:15:45;;;;;;;18.10;6.43;;;;;;;;;;1033726;28;20117;-77
2022/07/07 00:16:15;;;;;;;13.23;5.10;;;;;;;;;;1036409;28;20029;-77
2022/07/07 00:16:46;;;;;;;17.40;5.72;;;;;;;;;;1037681;28;20022;-77
2022/07/07 00:17:16;;;;;;;16.70;6.18;;;;;;;;;;1038697;28;20024;-77
2022/07/07 00:17:47;;;;;;;16.45;5.35;;;;;;;;;;1037822;28;20060;-77
2022/07/07 00:18:17;;;;;;;19.23;6.25;;;;;;;;;;1037416;28;20072;-77
2022/07/07 00:18:48;;;;;;;18.08;4.95;;;;;;;;;;1033485;28;20472;-77
2022/07/07 00:19:19;;;;;;;16.08;5.13;;;;;;;;;;1029008;28;20037;-77
2022/07/07 00:19:49;;;;;;;17.70;4.55;;;;;;;;;;1029159;28;20548;-77
2022/07/07 00:20:20;;;;;;;13.93;5.15;;;;;;;;;;1030517;28;20074;-77
2022/07/07 00:20:50;;;;;;;15.05;5.13;;;;;;;;;;1033295;28;20034;-77
2022/07/07 00:21:21;;;;;;;14.25;5.93;;;;;;;;;;1037547;28;20017;-77
2022/07/07 00:21:52;;;;;;;14.00;5.75;;;;;;;;;;1037991;28;20025;-77
2022/07/07 00:22:22;;;;;;;15.07;5.45;;;;;;;;;;1033656;28;20039;-77
2022/07/07 00:22:53;;;;;;;10.57;5.00;;;;;;;;;;1033596;28;20013;-77
2022/07/07 00:23:23;;;;;;;14.25;5.03;;;;;;;;;;1033365;28;20018;-77
2022/07/07 00:23:54;;;;;;;15.93;6.10;;;;;;;;;;1033121;28;20036;-77
2022/07/07 00:24:24;;;;;;;19.83;6.50;;;;;;;;;;1034211;28;20498;-77
2022/07/07 00:24:55;;;;;;;14.90;5.38;;;;;;;;;;1029337;28;20411;-76
2022/07/07 00:25:25;;;;;;;17.17;4.93;;;;;;;;;;1027297;28;20407;-77
2022/07/07 00:25:56;;;;;;;18.58;5.53;;;;;;;;;;1027485;28;20105;-77
2022/07/07 00:26:30;;;;;;;16.67;4.65;;;;;;;;;;1029497;28;20022;-77
2022/07/07 00:27:00;;;;;;;10.95;4.93;;;;;;;;;;1032192;28;20125;-77
2022/07/07 00:27:31;;;;;;;14.90;4.45;;;;;;;;;;1033569;28;20670;-77
2022/07/07 00:28:01;;;;;;;16.63;4.78;;;;;;;;;;1033672;28;20474;-77
2022/07/07 00:28:32;;;;;;;20.63;5.45;;;;;;;;;;1033347;28;20058;-77
2022/07/07 00:29:02;;;;;;;13.77;4.90;;;;;;;;;;1033112;28;20061;-77
2022/07/07 00:29:33;;;;;;;11.82;5.07;;;;;;;;;;1032009;28;20079;-76
2022/07/07 00:30:04;;;;;;;25.15;5.10;;;;;;;;;;1033088;28;20026;-77
2022/07/07 00:30:34;;;;;;;10.73;3.60;;;;;;;;;;1031491;28;20019;-77
2022/07/07 00:31:05;;;;;;;14.52;3.42;;;;;;;;;;1025223;28;20475;-77
2022/07/07 00:31:36;;;;;;;20.65;4.03;;;;;;;;;;1029731;28;20467;-77
2022/07/07 00:32:07;;;;;;;13.27;4.68;;;;;;;;;;1029172;28;20030;-77
2022/07/07 00:32:37;;;;;;;10.52;3.03;;;;;;;;;;1034724;28;20116;-77
2022/07/07 00:33:08;;;;;;;11.85;3.92;;;;;;;;;;1030263;28;20073;-77
2022/07/07 00:33:38;;;;;;;9.52;3.22;;;;;;;;;;1029385;28;20105;-77
2022/07/07 00:34:09;;;;;;;9.55;3.67;;;;;;;;;;1029889;28;20030;-76
2022/07/07 00:34:39;;;;;;;24.90;4.50;;;;;;;;;;1034006;28;20593;-77
2022/07/07 00:35:10;;;;;;;14.63;4.22;;;;;;;;;;1029986;28;20503;-77
2022/07/07 00:35:41;;;;;;;17.67;4.40;;;;;;;;;;1026341;28;20143;-77
2022/07/07 00:36:11;;;;;;;25.35;5.07;;;;;;;;;;1027328;28;20119;-77
2022/07/07 00:36:43;;;;;;;12.10;3.95;;;;;;;;;;1027260;28;20042;-77
2022/07/07 00:37:13;;;;;;;13.95;3.50;;;;;;;;;;1030376;28;20026;-77
2022/07/07 00:37:44;;;;;;;15.63;4.38;;;;;;;;;;1034318;28;20502;-77
2022/07/07 00:38:14;;;;;;;20.75;5.03;;;;;;;;;;1032591;28;20038;-77
2022/07/07 00:38:45;;;;;;;12.27;4.15;;;;;;;;;;1034691;28;20080;-77
2022/07/07 00:39:15;;;;;;;18.58;4.40;;;;;;;;;;1033553;28;20040;-77
2022/07/07 00:39:46;;;;;;;19.98;4.15;;;;;;;;;;1033108;28;20422;-77
2022/07/07 00:40:16;;;;;;;13.68;4.32;;;;;;;;;;1030078;28;20034;-77
2022/07/07 00:40:50;;;;;;;18.20;4.43;;;;;;;;;;1026248;28;20097;-77
2022/07/07 00:41:21;;;;;;;14.60;3.53;;;;;;;;;;1026750;28;20023;-77
2022/07/07 00:41:51;;;;;;;15.75;3.97;;;;;;;;;;1030079;28;20105;-77
2022/07/07 00:42:22;;;;;;;10.20;3.13;;;;;;;;;;1034757;28;20151;-77
2022/07/07 00:42:53;;;;;;;15.48;5.03;;;;;;;;;;1038261;28;20481;-77
2022/07/07 00:43:23;;;;;;;19.10;4.25;;;;;;;;;;1034839;28;20076;-77
2022/07/07 00:43:54;;;;;;;15.38;4.90;;;;;;;;;;1034376;28;20165;-77
2022/07/07 00:44:25;;;;;;;16.75;4.35;;;;;;;;;;1033476;28;20104;-77
2022/07/07 00:44:56;;;;;;;17.90;4.53;;;;;;;;;;1034702;28;20077;-77
2022/07/07 00:45:26;;;;;;;10.45;4.60;;;;;;;;;;1037836;28;20072;-77
2022/07/07 00:45:56;;;;;;;20.05;4.63;;;;;;;;;;1037732;28;20063;-77
2022/07/07 00:46:35;;;;;;;20.55;3.92;;;;;;;;;;1034671;28;20022;-76
2022/07/07 00:47:05;;;;;;;13.07;4.10;;;;;;;;;;1035399;28;20121;-77
2022/07/07 00:47:37;;;;;;;21.73;4.80;;;;;;;;;;1034503;28;20037;-77
2022/07/07 00:48:08;;;;;;;10.55;4.32;;;;;;;;;;1033608;28;20461;-77
2022/07/07 00:48:39;;;;;;;13.77;5.10;;;;;;;;;;1034159;28;20072;-77
2022/07/07 00:49:10;;;;;;;24.13;4.90;;;;;;;;;;1033159;28;20018;-78
2022/07/07 00:49:41;;;;;;;18.10;4.07;;;;;;;;;;1030651;28;20027;-77
2022/07/07 00:50:12;;;;;;;22.70;4.28;;;;;;;;;;1030464;28;20588;-77
2022/07/07 00:50:42;;;;;;;25.67;3.67;;;;;;;;;;1030198;28;20114;-77
2022/07/07 00:51:13;;;;;;;19.38;5.32;;;;;;;;;;1040534;23;20394;-77
2022/07/07 00:51:44;;;;;;;26.50;4.93;;;;;;;;;;1034758;28;20036;-77
2022/07/07 00:52:15;;;;;;;17.65;4.28;;;;;;;;;;1033519;28;20108;-77
2022/07/07 00:52:46;;;;;;;19.52;4.43;;;;;;;;;;1032525;28;20026;-77
2022/07/07 00:53:16;;;;;;;16.05;3.83;;;;;;;;;;1034600;28;20087;-77
2022/07/07 00:53:47;;;;;;;17.25;3.45;;;;;;;;;;1034277;28;20013;-77
2022/07/07 00:54:17;;;;;;;22.10;4.53;;;;;;;;;;1033949;28;20112;-77
2022/07/07 00:54:52;;;;;;;13.65;4.20;;;;;;;;;;1034003;28;20014;-77
2022/07/07 00:55:23;;;;;;;18.00;3.92;;;;;;;;;;1033690;28;20473;-77
2022/07/07 00:55:54;;;;;;;17.33;2.53;;;;;;;;;;1033740;28;20029;-77
2022/07/07 00:56:24;;;;;;;19.65;4.55;;;;;;;;;;1029924;28;20451;-77
2022/07/07 00:56:55;;;;;;;18.50;3.40;;;;;;;;;;1034278;28;20014;-77
2022/07/07 00:57:26;;;;;;;16.15;3.42;;;;;;;;;;1034308;28;20022;-77
2022/07/07 00:57:56;;;;;;;15.50;4.22;;;;;;;;;;1034498;28;20021;-77
2022/07/07 00:58:27;;;;;;;29.83;10.02;;;;;;;;;;1035482;28;20029;-77
2022/07/07 00:58:59;;;;;;;31.45;10.73;;;;;;;;;;1029284;28;20022;-77
2022/07/07 00:59:30;;;;;;;24.95;9.48;;;;;;;;;;1030495;28;20018;-77
2022/07/07 01:00:05;;;;;;;32.58;12.57;;;;;;;;;;1030134;28;20026;-77
2022/07/07 01:00:36;;;;;;;68.93;24.55;;;;;;;;;;1029768;28;20030;-78
2022/07/07 01:01:06;;;;;;;43.95;15.43;;;;;;;;;;1029952;28;20014;-77
2022/07/07 01:01:38;;;;;;;56.95;20.42;;;;;;;;;;1030684;28;20030;-77
2022/07/07 01:02:08;;;;;;;66.18;22.35;;;;;;;;;;1031432;28;20022;-77
2022/07/07 01:02:41;;;;;;;45.92;15.68;;;;;;;;;;1032172;28;20055;-76
2022/07/07 01:03:12;;;;;;;34.97;14.15;;;;;;;;;;1030289;28;20482;-77
2022/07/07 01:03:43;;;;;;;22.27;7.63;;;;;;;;;;1031795;28;20029;-77
2022/07/07 01:04:13;;;;;;;17.48;4.55;;;;;;;;;;1030277;28;20033;-77
2022/07/07 01:04:44;;;;;;;10.73;5.32;;;;;;;;;;1029739;28;20430;-77
2022/07/07 01:05:16;;;;;;;14.40;5.45;;;;;;;;;;1034717;28;20477;-77
2022/07/07 01:05:48;;;;;;;10.60;3.97;;;;;;;;;;1034590;28;20025;-77
2022/07/07 01:06:19;;;;;;;13.07;3.67;;;;;;;;;;1033319;28;20040;-77
2022/07/07 01:06:50;;;;;;;20.08;4.40;;;;;;;;;;1034764;28;20382;-77
2022/07/07 01:07:20;;;;;;;14.50;3.10;;;;;;;;;;1030619;28;20018;-76
2022/07/07 01:07:51;;;;;;;15.02;3.05;;;;;;;;;;1030700;28;20084;-77
2022/07/07 01:08:22;;;;;;;14.15;2.92;;;;;;;;;;1030612;28;20109;-77
2022/07/07 01:08:53;;;;;;;28.20;4.40;;;;;;;;;;1031106;28;20030;-77
2022/07/07 01:09:24;;;;;;;8.23;2.55;;;;;;;;;;1032087;28;20535;-76
2022/07/07 01:09:56;;;;;;;11.45;2.60;;;;;;;;;;1031947;28;20018;-77
2022/07/07 01:10:26;;;;;;;8.68;2.90;;;;;;;;;;1031831;28;20490;-76
2022/07/07 01:10:57;;;;;;;9.45;2.85;;;;;;;;;;1030597;28;20018;-77
2022/07/07 01:11:27;;;;;;;17.38;2.67;;;;;;;;;;1030736;28;20026;-77
2022/07/07 01:11:58;;;;;;;12.55;2.55;;;;;;;;;;1031898;28;20489;-76
2022/07/07 01:12:35;;;;;;;20.65;4.82;;;;;;;;;;1031963;28;20030;-75
2022/07/07 01:13:05;;;;;;;14.38;2.88;;;;;;;;;;1030685;28;20026;-77
2022/07/07 01:13:38;;;;;;;9.05;3.17;;;;;;;;;;1029845;28;20019;-77
2022/07/07 01:14:09;;;;;;;6.20;2.47;;;;;;;;;;1031182;28;20069;-77
2022/07/07 01:14:39;;;;;;;16.77;2.88;;;;;;;;;;1032135;28;21218;-76
2022/07/07 01:15:11;;;;;;;6.35;2.63;;;;;;;;;;1032080;28;20026;-76
2022/07/07 01:15:41;;;;;;;12.10;2.35;;;;;;;;;;1030172;28;20117;-76
2022/07/07 01:16:12;;;;;;;11.20;3.00;;;;;;;;;;1029076;28;20089;-76
2022/07/07 01:16:42;;;;;;;20.63;3.40;;;;;;;;;;1030011;28;20050;-77
2022/07/07 01:17:13;;;;;;;19.42;3.47;;;;;;;;;;1029755;28;20027;-76
2022/07/07 01:17:43;;;;;;;7.32;3.17;;;;;;;;;;1031403;28;20097;-77
2022/07/07 01:18:14;;;;;;;14.07;2.92;;;;;;;;;;1028849;28;20545;-77
2022/07/07 01:18:44;;;;;;;10.38;3.05;;;;;;;;;;1030294;28;20446;-77
2022/07/07 01:19:15;;;;;;;21.45;2.60;;;;;;;;;;1031954;28;20026;-76
2022/07/07 01:19:46;;;;;;;11.32;3.00;;;;;;;;;;1030102;28;20018;-76
2022/07/07 01:20:18;;;;;;;5.30;2.38;;;;;;;;;;1027849;28;20045;-75
2022/07/07 01:20:49;;;;;;;14.02;2.80;;;;;;;;;;1028132;28;20023;-76
2022/07/07 01:21:20;;;;;;;15.50;3.80;;;;;;;;;;1030035;28;20088;-77
2022/07/07 01:21:57;;;;;;;15.65;3.15;;;;;;;;;;1029068;28;20038;-77
2022/07/07 01:22:37;;;;;;;13.57;2.85;;;;;;;;;;1029568;28;20010;-76
2022/07/07 01:23:08;;;;;;;14.48;2.60;;;;;;;;;;1028674;28;20139;-76
2022/07/07 01:23:39;;;;;;;13.90;3.17;;;;;;;;;;1029627;28;20030;-76
2022/07/07 01:24:09;;;;;;;15.32;4.13;;;;;;;;;;1029427;28;20019;-76
2022/07/07 01:24:40;;;;;;;18.23;2.67;;;;;;;;;;1030283;28;20018;-75
2022/07/07 01:25:10;;;;;;;17.58;3.90;;;;;;;;;;1030477;28;20023;-76
2022/07/07 01:25:41;;;;;;;14.80;2.78;;;;;;;;;;1029405;28;20029;-77
2022/07/07 01:26:12;;;;;;;16.10;3.80;;;;;;;;;;1028077;28;20018;-76
2022/07/07 01:26:43;;;;;;;12.45;3.08;;;;;;;;;;1028779;28;20109;-76
2022/07/07 01:27:14;;;;;;;25.27;2.95;;;;;;;;;;1030183;28;20482;-77
2022/07/07 01:27:45;;;;;;;9.68;3.47;;;;;;;;;;1033019;28;20030;-76
2022/07/07 01:28:16;;;;;;;20.23;3.95;;;;;;;;;;1032327;28;20208;-76
2022/07/07 01:28:46;;;;;;;10.30;2.38;;;;;;;;;;1032254;28;20057;-76
2022/07/07 01:29:17;;;;;;;15.73;3.33;;;;;;;;;;1029646;28;20045;-77
2022/07/07 01:29:48;;;;;;;19.83;3.28;;;;;;;;;;1030689;28;20497;-77
2022/07/07 01:30:19;;;;;;;8.65;2.67;;;;;;;;;;1031662;28;20022;-76
2022/07/07 01:30:50;;;;;;;14.68;2.80;;;;;;;;;;1031781;28;20104;-77
2022/07/07 01:31:20;;;;;;;8.13;2.83;;;;;;;;;;1030523;28;20394;-76
2022/07/07 01:31:51;;;;;;;10.85;3.83;;;;;;;;;;1034153;28;20033;-76
2022/07/07 01:32:21;;;;;;;18.45;3.90;;;;;;;;;;1033368;28;20018;-76
2022/07/07 01:32:52;;;;;;;9.75;2.63;;;;;;;;;;1034093;28;20112;-76
2022/07/07 01:33:22;;;;;;;14.63;2.90;;;;;;;;;;1033700;28;20037;-77
2022/07/07 01:33:53;;;;;;;21.15;3.40;;;;;;;;;;1028637;28;20026;-77
2022/07/07 01:34:23;;;;;;;11.52;3.92;;;;;;;;;;1030385;28;20439;-77
2022/07/07 01:34:54;;;;;;;8.93;3.13;;;;;;;;;;1029905;28;20037;-75
2022/07/07 01:35:25;;;;;;;10.02;2.67;;;;;;;;;;1029968;28;20118;-76
2022/07/07 01:35:55;;;;;;;7.88;3.08;;;;;;;;;;1030221;28;20019;-75
2022/07/07 01:36:26;;;;;;;10.07;2.65;;;;;;;;;;1027227;28;20082;-77
2022/07/07 01:36:56;;;;;;;11.80;3.08;;;;;;;;;;1031719;28;20029;-77
2022/07/07 01:37:27;;;;;;;10.25;2.25;;;;;;;;;;1031906;28;20167;-77
2022/07/07 01:37:58;;;;;;;20.80;4.03;;;;;;;;;;1031613;28;20022;-76
2022/07/07 01:38:28;;;;;;;10.98;3.58;;;;;;;;;;1030564;28;20046;-76
2022/07/07 01:38:59;;;;;;;13.85;2.58;;;;;;;;;;1032591;28;20034;-77
2022/07/07 01:39:29;;;;;;;12.77;2.85;;;;;;;;;;1030335;28;20422;-77
2022/07/07 01:40:00;;;;;;;17.95;3.67;;;;;;;;;;1033753;28;20072;-77
2022/07/07 01:40:30;;;;;;;12.57;3.15;;;;;;;;;;1033863;28;20026;-75
2022/07/07 01:41:01;;;;;;;11.23;2.38;;;;;;;;;;1034199;28;20465;-77
2022/07/07 01:41:31;;;;;;;11.68;2.95;;;;;;;;;;1033705;28;20050;-77
2022/07/07 01:42:02;;;;;;;8.45;2.58;;;;;;;;;;1029749;28;20030;-76
2022/07/07 01:42:33;;;;;;;10.02;2.75;;;;;;;;;;1029136;28;20026;-77
2022/07/07 01:43:03;;;;;;;13.50;2.17;;;;;;;;;;1029951;28;20030;-77
2022/07/07 01:43:34;;;;;;;13.63;2.65;;;;;;;;;;1026684;28;20423;-77
2022/07/07 01:44:04;;;;;;;12.95;2.47;;;;;;;;;;1028967;28;20037;-77
2022/07/07 01:44:36;;;;;;;8.15;3.25;;;;;;;;;;1025777;28;20033;-76
2022/07/07 01:45:07;;;;;;;12.07;2.28;;;;;;;;;;1025755;28;20481;-77
2022/07/07 01:45:37;;;;;;;22.00;4.60;;;;;;;;;;1028264;28;20122;-76
2022/07/07 01:46:08;;;;;;;5.57;2.10;;;;;;;;;;1029363;28;20793;-76
2022/07/07 01:46:38;;;;;;;10.52;2.53;;;;;;;;;;1033993;28;20021;-76
2022/07/07 01:47:09;;;;;;;24.20;4.15;;;;;;;;;;1033849;28;20117;-76
2022/07/07 01:47:40;;;;;;;27.90;4.10;;;;;;;;;;1029894;28;20018;-76
2022/07/07 01:48:10;;;;;;;8.05;2.35;;;;;;;;;;1028523;28;20462;-77
2022/07/07 01:48:41;;;;;;;17.13;3.97;;;;;;;;;;1030280;28;20027;-76
2022/07/07 01:49:11;;;;;;;9.07;2.38;;;;;;;;;;1033078;28;20030;-76
2022/07/07 01:49:42;;;;;;;17.27;2.50;;;;;;;;;;1034250;28;20481;-76
2022/07/07 01:50:12;;;;;;;12.10;2.08;;;;;;;;;;1030456;28;20031;-77
2022/07/07 01:50:43;;;;;;;23.35;5.97;;;;;;;;;;1031337;28;20518;-77
2022/07/07 01:51:13;;;;;;;11.93;2.60;;;;;;;;;;1030677;28;20121;-77
2022/07/07 01:51:44;;;;;;;8.68;3.30;;;;;;;;;;1030802;28;20105;-77
2022/07/07 01:52:14;;;;;;;8.13;2.55;;;;;;;;;;1030905;28;20120;-76
2022/07/07 01:52:45;;;;;;;15.05;2.35;;;;;;;;;;1031510;28;20054;-76
2022/07/07 01:53:16;;;;;;;15.07;4.00;;;;;;;;;;1030224;28;20030;-76
2022/07/07 01:53:46;;;;;;;18.23;2.38;;;;;;;;;;1028641;28;20033;-76
2022/07/07 01:54:17;;;;;;;11.48;2.55;;;;;;;;;;1027917;28;20153;-77
2022/07/07 01:54:47;;;;;;;13.60;3.35;;;;;;;;;;1030185;28;20020;-77
2022/07/07 01:55:18;;;;;;;15.10;2.63;;;;;;;;;;1032722;28;20110;-76
2022/07/07 01:55:48;;;;;;;14.52;3.28;;;;;;;;;;1031510;28;20022;-77
2022/07/07 01:56:19;;;;;;;10.18;2.65;;;;;;;;;;1026527;28;20371;-76
2022/07/07 01:56:49;;;;;;;12.50;2.17;;;;;;;;;;1025317;28;20043;-76
2022/07/07 01:57:20;;;;;;;11.25;2.40;;;;;;;;;;1024912;28;20039;-75
2022/07/07 01:57:50;;;;;;;17.38;2.60;;;;;;;;;;1029014;28;20025;-77
2022/07/07 01:58:21;;;;;;;28.08;3.22;;;;;;;;;;1030580;28;20484;-76
2022/07/07 01:58:51;;;;;;;13.45;2.67;;;;;;;;;;1029318;28;20037;-77
2022/07/07 01:59:22;;;;;;;16.20;3.03;;;;;;;;;;1028413;28;20554;-77
2022/07/07 01:59:52;;;;;;;18.88;2.88;;;;;;;;;;1030663;28;20117;-77
2022/07/07 02:00:23;;;;;;;17.13;3.22;;;;;;;;;;1028470;28;20037;-75
2022/07/07 02:00:53;;;;;;;11.35;3.08;;;;;;;;;;1027250;28;20046;-76
2022/07/07 02:01:24;;;;;;;15.25;4.22;;;;;;;;;;1028960;28;20113;-75
2022/07/07 02:01:55;;;;;;;19.48;3.22;;;;;;;;;;1028058;28;20114;-77
2022/07/07 02:02:25;;;;;;;12.00;2.40;;;;;;;;;;1028054;28;20052;-77
2022/07/07 02:02:56;;;;;;;12.85;2.00;;;;;;;;;;1027807;28;20019;-76
2022/07/07 02:03:26;;;;;;;6.90;1.60;;;;;;;;;;1029794;28;20470;-76
2022/07/07 02:03:57;;;;;;;5.25;1.98;;;;;;;;;;1028534;28;20423;-76
2022/07/07 02:04:27;;;;;;;5.13;2.30;;;;;;;;;;1027789;28;20907;-77
2022/07/07 02:04:58;;;;;;;14.60;1.60;;;;;;;;;;1030086;28;20029;-77
2022/07/07 02:05:29;;;;;;;10.25;2.35;;;;;;;;;;1029214;28;20026;-77
2022/07/07 02:05:59;;;;;;;17.23;2.30;;;;;;;;;;1030445;28;20485;-76
2022/07/07 02:06:30;;;;;;;19.90;4.15;;;;;;;;;;1031036;28;20030;-76
2022/07/07 02:07:00;;;;;;;11.68;2.13;;;;;;;;;;1031417;28;20033;-76
2022/07/07 02:07:34;;;;;;;20.13;1.70;;;;;;;;;;1031881;28;20014;-77
2022/07/07 02:08:04;;;;;;;23.98;3.13;;;;;;;;;;1033222;28;20022;-76
2022/07/07 02:08:35;;;;;;;5.70;2.00;;;;;;;;;;1033117;28;20030;-76
2022/07/07 02:09:06;;;;;;;16.15;2.50;;;;;;;;;;1034077;28;20021;-76
2022/07/07 02:09:36;;;;;;;29.15;3.17;;;;;;;;;;1031624;28;20030;-76
2022/07/07 02:10:07;;;;;;;23.90;5.25;;;;;;;;;;1030489;28;20033;-76
2022/07/07 02:11:27;;;;;;;21.02;5.07;;;;;;;;;;1032723;28;20034;-76
2022/07/07 02:11:58;;;;;;;19.42;5.32;;;;;;;;;;1028721;28;20026;-76
2022/07/07 02:12:28;;;;;;;19.73;3.75;;;;;;;;;;1029342;28;20026;-76
2022/07/07 02:12:59;;;;;;;12.40;3.67;;;;;;;;;;1028178;28;20027;-77
2022/07/07 02:13:29;;;;;;;14.15;3.05;;;;;;;;;;1029952;28;20097;-74
2022/07/07 02:14:00;;;;;;;14.48;3.10;;;;;;;;;;1029587;28;20038;-75
2022/07/07 02:14:30;;;;;;;20.20;3.20;;;;;;;;;;1031395;28;20478;-75
2022/07/07 02:15:01;;;;;;;20.13;3.22;;;;;;;;;;1029609;28;20023;-74
2022/07/07 02:15:32;;;;;;;20.15;2.90;;;;;;;;;;1030974;28;20114;-74
2022/07/07 02:16:03;;;;;;;29.52;2.95;;;;;;;;;;1030730;28;20022;-75
2022/07/07 02:16:33;;;;;;;16.58;2.30;;;;;;;;;;1029162;28;20148;-75
2022/07/07 02:17:04;;;;;;;15.38;2.38;;;;;;;;;;1030265;28;20613;-74
2022/07/07 02:17:34;;;;;;;15.82;3.17;;;;;;;;;;1029274;28;20026;-75
2022/07/07 02:18:05;;;;;;;11.00;2.90;;;;;;;;;;1024907;28;20030;-75
2022/07/07 02:18:37;;;;;;;13.77;2.80;;;;;;;;;;1022366;29;20038;-75
2022/07/07 02:19:08;;;;;;;33.58;4.35;;;;;;;;;;1023064;28;20102;-74
2022/07/07 02:19:38;;;;;;;23.35;4.43;;;;;;;;;;1024974;28;20019;-74
2022/07/07 02:20:09;;;;;;;21.80;4.95;;;;;;;;;;1026249;28;20815;-74
2022/07/07 02:20:39;;;;;;;21.30;4.38;;;;;;;;;;1028082;28;20120;-74
2022/07/07 02:21:11;;;;;;;20.70;5.95;;;;;;;;;;1027143;28;20502;-74
2022/07/07 02:21:42;;;;;;;19.70;4.72;;;;;;;;;;1028285;28;20023;-74
2022/07/07 02:22:12;;;;;;;21.15;6.10;;;;;;;;;;1027876;28;20435;-74
2022/07/07 02:22:43;;;;;;;21.10;6.25;;;;;;;;;;1026639;28;20041;-75
2022/07/07 02:23:13;;;;;;;24.65;5.55;;;;;;;;;;1029189;28;20040;-74
2022/07/07 02:23:45;;;;;;;30.40;6.95;;;;;;;;;;1029201;28;20029;-74
2022/07/07 02:24:15;;;;;;;37.67;8.18;;;;;;;;;;1027767;28;20073;-74
2022/07/07 02:24:47;;;;;;;24.75;8.18;;;;;;;;;;1028024;28;20566;-75
2022/07/07 02:25:17;;;;;;;41.78;9.70;;;;;;;;;;1026410;28;20034;-74
2022/07/07 02:25:48;;;;;;;48.70;11.02;;;;;;;;;;1029308;28;20077;-75
2022/07/07 02:26:18;;;;;;;35.15;12.20;;;;;;;;;;1030424;28;20029;-75
2022/07/07 02:26:49;;;;;;;49.20;18.05;;;;;;;;;;1026269;28;20100;-75
2022/07/07 02:27:19;;;;;;;67.00;22.67;;;;;;;;;;1026283;28;20423;-74
2022/07/07 02:27:52;;;;;;;44.33;18.02;;;;;;;;;;1029908;28;20394;-75
2022/07/07 02:28:23;;;;;;;48.90;17.73;;;;;;;;;;1029090;28;20025;-73
2022/07/07 02:28:54;;;;;;;46.97;11.75;;;;;;;;;;1031236;28;20030;-74
2022/07/07 02:29:24;;;;;;;52.17;14.77;;;;;;;;;;1032700;28;20048;-75
2022/07/07 02:29:55;;;;;;;40.20;11.50;;;;;;;;;;1031230;28;20577;-75
2022/07/07 02:30:25;;;;;;;35.05;10.35;;;;;;;;;;1028496;28;20027;-75
2022/07/07 02:30:57;;;;;;;28.90;9.43;;;;;;;;;;1025756;28;20145;-75
2022/07/07 02:31:27;;;;;;;34.53;8.68;;;;;;;;;;1025890;28;20019;-74
2022/07/07 02:31:58;;;;;;;31.08;8.68;;;;;;;;;;1030367;28;20029;-75
2022/07/07 02:32:28;;;;;;;24.83;9.73;;;;;;;;;;1028207;28;20463;-74
2022/07/07 02:32:59;;;;;;;32.83;10.25;;;;;;;;;;1032661;28;20026;-74
2022/07/07 02:33:29;;;;;;;35.38;9.98;;;;;;;;;;1031622;28;20030;-75
2022/07/07 02:34:00;;;;;;;22.95;7.32;;;;;;;;;;1031946;28;20406;-75
2022/07/07 02:34:30;;;;;;;24.65;7.57;;;;;;;;;;1031606;28;20026;-74
2022/07/07 02:35:01;;;;;;;33.08;7.75;;;;;;;;;;1032454;28;20026;-74
2022/07/07 02:35:32;;;;;;;35.78;7.40;;;;;;;;;;1031493;28;20034;-74
2022/07/07 02:36:03;;;;;;;38.25;8.60;;;;;;;;;;1030834;28;20390;-74
2022/07/07 02:36:34;;;;;;;33.53;7.82;;;;;;;;;;1032120;28;20027;-75
2022/07/07 02:37:04;;;;;;;27.48;8.02;;;;;;;;;;1029320;28;20030;-75
2022/07/07 02:37:34;;;;;;;41.95;9.32;;;;;;;;;;1023682;28;20070;-75
2022/07/07 02:38:05;;;;;;;30.98;8.40;;;;;;;;;;1025675;28;20082;-75
2022/07/07 02:38:36;;;;;;;32.33;9.05;;;;;;;;;;1024953;28;20427;-75
2022/07/07 02:39:07;;;;;;;36.17;8.43;;;;;;;;;;1019955;28;20023;-75
2022/07/07 02:39:38;;;;;;;30.52;9.85;;;;;;;;;;1026660;28;20430;-75
2022/07/07 02:40:09;;;;;;;33.88;7.35;;;;;;;;;;1030348;28;20038;-75
2022/07/07 02:40:40;;;;;;;32.70;8.93;;;;;;;;;;1031492;28;20100;-75
2022/07/07 02:41:10;;;;;;;43.03;13.07;;;;;;;;;;1031870;28;20034;-75
2022/07/07 02:41:41;;;;;;;54.72;14.70;;;;;;;;;;1030794;28;20026;-75
2022/07/07 02:42:11;;;;;;;46.53;15.45;;;;;;;;;;1024384;28;20476;-75
2022/07/07 02:42:42;;;;;;;37.70;12.32;;;;;;;;;;1024103;28;20058;-75
2022/07/07 02:43:15;;;;;;;54.72;12.57;;;;;;;;;;1025686;28;20396;-74
2022/07/07 02:43:46;;;;;;;36.03;9.57;;;;;;;;;;1027696;28;20038;-75
2022/07/07 02:44:16;;;;;;;36.60;8.65;;;;;;;;;;1033591;28;20121;-75
2022/07/07 02:44:47;;;;;;;47.42;11.63;;;;;;;;;;1031830;28;20069;-76
2022/07/07 02:45:17;;;;;;;56.10;15.25;;;;;;;;;;1032337;28;20486;-76
2022/07/07 02:45:48;;;;;;;40.92;10.00;;;;;;;;;;1033538;28;20021;-75
2022/07/07 02:46:19;;;;;;;38.97;12.65;;;;;;;;;;1032255;28;20096;-75
2022/07/07 02:46:49;;;;;;;46.72;12.73;;;;;;;;;;1031298;28;20447;-75
2022/07/07 02:47:20;;;;;;;33.90;12.70;;;;;;;;;;1033179;28;20032;-75
2022/07/07 02:47:51;;;;;;;44.40;11.43;;;;;;;;;;1029044;28;20025;-75
2022/07/07 02:48:22;;;;;;;47.33;12.48;;;;;;;;;;1026403;28;20101;-75
2022/07/07 02:48:53;;;;;;;34.92;11.43;;;;;;;;;;1026134;28;20113;-75
2022/07/07 02:49:23;;;;;;;38.30;10.57;;;;;;;;;;1029413;28;20034;-75
2022/07/07 02:49:54;;;;;;;36.95;10.55;;;;;;;;;;1027547;28;20049;-75
2022/07/07 02:50:24;;;;;;;39.47;12.32;;;;;;;;;;1030305;28;20068;-75
2022/07/07 02:50:55;;;;;;;30.48;10.25;;;;;;;;;;1031449;28;20030;-75
2022/07/07 02:51:25;;;;;;;47.70;13.80;;;;;;;;;;1031215;28;20042;-75
2022/07/07 02:51:56;;;;;;;50.47;12.75;;;;;;;;;;1031474;28;20022;-76
2022/07/07 02:52:26;;;;;;;39.08;12.20;;;;;;;;;;1027339;28;20328;-76
2022/07/07 02:52:57;;;;;;;41.45;12.10;;;;;;;;;;1033649;28;20093;-75
2022/07/07 02:53:27;;;;;;;56.60;12.15;;;;;;;;;;1030240;28;20026;-75
2022/07/07 02:53:58;;;;;;;35.35;8.95;;;;;;;;;;1031690;28;20033;-75
2022/07/07 02:54:28;;;;;;;34.95;9.02;;;;;;;;;;1026124;28;20085;-75
2022/07/07 02:54:59;;;;;;;52.55;11.05;;;;;;;;;;1029877;28;20117;-75
2022/07/07 02:55:30;;;;;;;42.50;10.85;;;;;;;;;;1029058;28;20465;-75
2022/07/07 02:56:01;;;;;;;36.10;11.13;;;;;;;;;;1026641;28;20113;-75
2022/07/07 02:56:31;;;;;;;46.58;11.98;;;;;;;;;;1027979;28;20030;-74
2022/07/07 02:57:03;;;;;;;33.08;10.43;;;;;;;;;;1031189;28;20029;-75
2022/07/07 02:57:33;;;;;;;42.00;10.35;;;;;;;;;;1031541;28;20049;-75
2022/07/07 02:58:05;;;;;;;33.90;10.65;;;;;;;;;;1030242;28;20035;-75
2022/07/07 02:58:35;;;;;;;31.30;10.50;;;;;;;;;;1028124;28;20077;-75
2022/07/07 02:59:06;;;;;;;40.13;11.43;;;;;;;;;;1029268;28;20069;-75
2022/07/07 02:59:36;;;;;;;32.63;10.13;;;;;;;;;;1027695;28;20117;-75
2022/07/07 03:00:08;;;;;;;37.60;11.32;;;;;;;;;;1028465;28;20544;-74
2022/07/07 03:00:39;;;;;;;43.83;14.55;;;;;;;;;;1027580;28;20022;-75
2022/07/07 03:01:09;;;;;;;32.05;11.90;;;;;;;;;;1028797;28;20113;-75
2022/07/07 03:01:40;;;;;;;56.03;13.05;;;;;;;;;;1028638;28;20022;-75
2022/07/07 03:02:11;;;;;;;38.03;13.05;;;;;;;;;;1029885;28;20026;-75
2022/07/07 03:02:41;;;;;;;39.58;12.50;;;;;;;;;;1026906;28;20054;-75